Terminal Aerodrome Forecast
Issued by NWS

Home | Current Version | Previous Version | Text Only | Print | Product List | Glossary On
Versions: 1 2 3 4 5 6 7 8 9 10 11 12 13 14 15 16 17 18
744
FTAK31 PAJN 241741
TAFAJN
TAF
PAJN 241741Z 2418/2518 11010G18KT P6SM -SHRA BKN025 OVC050
      TEMPO 2418/2422 11012KT 5SM -SHRA BR FEW008 BKN020 OVC035
     FM250200 12010KT 6SM -SHRA BKN025 OVC035
     FM250900 09006KT 5SM BR VCSH FEW005 OVC025=

USA.gov is the U.S. government's official web portal to all federal, state and local government web resources and services.